createdAt,value
2018-06-19T00:00:37.790Z,0
2018-06-19T00:01:38.540Z,0
2018-06-19T00:02:39.255Z,0
2018-06-19T00:03:39.978Z,0
2018-06-19T00:04:40.706Z,0
2018-06-19T00:05:41.433Z,0
2018-06-19T00:06:42.153Z,0
2018-06-19T00:07:42.877Z,0
2018-06-19T00:08:43.612Z,0
2018-06-19T00:09:44.333Z,0
2018-06-19T00:10:45.082Z,0
2018-06-19T00:11:45.808Z,0
2018-06-19T00:12:46.530Z,0
2018-06-19T00:13:47.262Z,0
2018-06-19T00:14:47.975Z,0
2018-06-19T00:15:48.711Z,0
2018-06-19T00:16:49.438Z,0
2018-06-19T00:17:50.221Z,0
2018-06-19T00:18:50.946Z,0
2018-06-19T00:19:51.659Z,0
2018-06-19T00:20:52.380Z,0
2018-06-19T00:21:53.102Z,0
2018-06-19T00:22:53.836Z,0
2018-06-19T00:23:54.619Z,0
2018-06-19T00:24:55.358Z,0
2018-06-19T00:25:56.077Z,0
2018-06-19T00:26:56.805Z,0
2018-06-19T00:27:57.535Z,0
2018-06-19T00:28:58.271Z,0
2018-06-19T00:29:58.994Z,0
2018-06-19T00:30:59.717Z,0
2018-06-19T00:32:00.442Z,0
2018-06-19T00:33:01.167Z,0
2018-06-19T00:34:01.951Z,0
2018-06-19T00:35:02.666Z,0
2018-06-19T00:36:03.398Z,0
2018-06-19T00:37:04.118Z,0
2018-06-19T00:38:04.854Z,0
2018-06-19T00:39:05.575Z,0
2018-06-19T00:40:06.312Z,0
2018-06-19T00:41:07.025Z,0
2018-06-19T00:42:07.755Z,0
2018-06-19T00:43:08.488Z,0
2018-06-19T00:44:09.312Z,0
2018-06-19T00:45:10.034Z,0
2018-06-19T00:46:10.758Z,0
2018-06-19T00:47:11.479Z,0
2018-06-19T00:48:12.221Z,0
2018-06-19T00:49:12.951Z,0
2018-06-19T00:50:13.660Z,0
2018-06-19T00:51:14.387Z,0
2018-06-19T00:52:15.109Z,0
2018-06-19T00:53:15.837Z,0
2018-06-19T00:54:16.565Z,0
2018-06-19T00:55:17.286Z,0
2018-06-19T00:56:18.049Z,0
2018-06-19T00:57:18.789Z,0
2018-06-19T00:58:19.513Z,0
2018-06-19T00:59:20.237Z,0
2018-06-19T01:00:20.980Z,0
2018-06-19T01:01:21.939Z,0
2018-06-19T01:02:22.666Z,0
2018-06-19T01:03:23.454Z,0
2018-06-19T01:04:24.185Z,0
2018-06-19T01:05:24.907Z,0
2018-06-19T01:06:25.634Z,0
2018-06-19T01:07:26.359Z,0
2018-06-19T01:08:27.098Z,0
2018-06-19T01:09:27.824Z,0
2018-06-19T01:10:28.551Z,0
2018-06-19T01:11:29.276Z,0
2018-06-19T01:12:29.996Z,0
2018-06-19T01:13:30.727Z,0
2018-06-19T01:14:31.607Z,0
2018-06-19T01:15:32.330Z,0
2018-06-19T01:16:33.308Z,0
2018-06-19T01:17:34.018Z,0
2018-06-19T01:18:34.744Z,0
2018-06-19T01:19:35.464Z,0
2018-06-19T01:20:36.178Z,0
2018-06-19T01:21:36.915Z,0
2018-06-19T01:22:37.629Z,0
2018-06-19T01:23:38.401Z,0
2018-06-19T01:24:39.175Z,0
2018-06-19T01:25:39.898Z,0
2018-06-19T01:26:40.625Z,0
2018-06-19T01:27:41.359Z,0
2018-06-19T01:28:42.104Z,0
2018-06-19T01:29:42.795Z,0
2018-06-19T01:30:43.523Z,0
2018-06-19T01:31:44.541Z,0
2018-06-19T01:32:45.254Z,0
2018-06-19T01:33:45.985Z,0
2018-06-19T01:34:46.696Z,0
2018-06-19T01:35:47.665Z,0
2018-06-19T01:36:48.388Z,0
2018-06-19T01:37:49.120Z,0
2018-06-19T01:38:49.854Z,0
2018-06-19T01:39:50.589Z,0
2018-06-19T01:40:51.328Z,0
2018-06-19T01:41:52.055Z,0
2018-06-19T01:42:52.791Z,0
2018-06-19T01:43:53.521Z,0
2018-06-19T01:44:54.257Z,0
2018-06-19T01:45:54.980Z,0
2018-06-19T01:46:55.716Z,0
2018-06-19T01:47:56.434Z,0
2018-06-19T01:48:57.164Z,0
2018-06-19T01:49:57.886Z,0
2018-06-19T01:50:58.608Z,0
2018-06-19T01:51:59.391Z,0
2018-06-19T01:53:00.118Z,0
2018-06-19T01:54:01.113Z,0
2018-06-19T01:55:01.846Z,0
2018-06-19T01:56:02.580Z,0
2018-06-19T01:57:03.817Z,0
2018-06-19T01:58:04.536Z,0
2018-06-19T01:59:05.504Z,0
2018-06-19T02:00:06.226Z,0
2018-06-19T02:01:06.951Z,0
2018-06-19T02:02:08.026Z,0
2018-06-19T02:03:08.761Z,0
2018-06-19T02:04:09.471Z,0
2018-06-19T02:05:10.200Z,0
2018-06-19T02:06:10.928Z,0
2018-06-19T02:07:11.668Z,0
2018-06-19T02:08:12.385Z,0
2018-06-19T02:09:13.109Z,0
2018-06-19T02:10:13.837Z,0
2018-06-19T02:11:14.556Z,0
2018-06-19T02:12:15.274Z,0
2018-06-19T02:13:15.999Z,0
2018-06-19T02:14:16.715Z,0
2018-06-19T02:15:17.448Z,0
2018-06-19T02:16:18.168Z,0
2018-06-19T02:17:18.895Z,0
2018-06-19T02:18:19.619Z,0
2018-06-19T02:19:20.346Z,0
2018-06-19T02:20:21.072Z,0
2018-06-19T02:21:22.049Z,0
2018-06-19T02:22:23.184Z,0
2018-06-19T02:23:23.905Z,0
2018-06-19T02:24:24.644Z,0
2018-06-19T02:25:25.372Z,0
2018-06-19T02:26:26.096Z,0
2018-06-19T02:27:26.865Z,0
2018-06-19T02:28:27.593Z,0
2018-06-19T02:29:28.318Z,0
2018-06-19T02:30:29.044Z,0
2018-06-19T02:31:29.781Z,0
2018-06-19T02:32:30.500Z,0
2018-06-19T02:33:31.234Z,0
2018-06-19T02:34:31.949Z,0
2018-06-19T02:35:32.673Z,0
2018-06-19T02:36:33.389Z,0
2018-06-19T02:37:34.129Z,0
2018-06-19T02:38:34.872Z,0
2018-06-19T02:39:35.599Z,0
2018-06-19T02:40:36.343Z,0
2018-06-19T02:41:37.052Z,0
2018-06-19T02:42:37.788Z,0
2018-06-19T02:43:38.514Z,0
2018-06-19T02:44:39.388Z,0
2018-06-19T02:45:40.127Z,0
2018-06-19T02:46:41.100Z,0
2018-06-19T02:47:41.834Z,0
2018-06-19T02:48:42.807Z,0
2018-06-19T02:49:43.527Z,0
2018-06-19T02:50:44.258Z,0
2018-06-19T02:51:45.030Z,0
2018-06-19T02:52:45.997Z,0
2018-06-19T02:53:46.722Z,0
2018-06-19T02:54:47.454Z,0
2018-06-19T02:55:48.177Z,0
2018-06-19T02:56:49.145Z,0
2018-06-19T02:57:49.877Z,0
2018-06-19T02:58:50.609Z,0
2018-06-19T02:59:51.591Z,0
2018-06-19T03:00:52.337Z,0
2018-06-19T03:01:53.063Z,5
2018-06-19T03:02:54.053Z,5
2018-06-19T03:03:55.087Z,5
2018-06-19T03:04:55.806Z,5
2018-06-19T03:05:56.529Z,5
2018-06-19T03:06:57.258Z,5
2018-06-19T03:07:57.979Z,5
2018-06-19T03:08:58.707Z,5
2018-06-19T03:09:59.425Z,11
2018-06-19T03:11:00.159Z,11
2018-06-19T03:12:00.886Z,11
2018-06-19T03:13:01.626Z,11
2018-06-19T03:14:02.613Z,11
2018-06-19T03:15:03.597Z,11
2018-06-19T03:16:04.571Z,11
2018-06-19T03:17:05.318Z,16
2018-06-19T03:18:06.049Z,16
2018-06-19T03:19:07.179Z,16
2018-06-19T03:20:07.902Z,16
2018-06-19T03:21:08.624Z,22
2018-06-19T03:22:09.362Z,22
2018-06-19T03:23:10.086Z,22
2018-06-19T03:24:10.859Z,22
2018-06-19T03:25:11.591Z,22
2018-06-19T03:26:12.327Z,22
2018-06-19T03:27:13.066Z,22
2018-06-19T03:28:13.791Z,28
2018-06-19T03:29:14.609Z,28
2018-06-19T03:30:15.366Z,28
2018-06-19T03:31:16.061Z,28
2018-06-19T03:32:16.801Z,28
2018-06-19T03:33:17.533Z,28
2018-06-19T03:34:18.264Z,28
2018-06-19T03:35:18.998Z,28
2018-06-19T03:36:19.727Z,33
2018-06-19T03:37:20.455Z,39
2018-06-19T03:38:21.179Z,45
2018-06-19T03:39:22.166Z,45
2018-06-19T03:40:22.883Z,45
2018-06-19T03:41:23.612Z,45
2018-06-19T03:42:24.758Z,50
2018-06-19T03:43:25.492Z,50
2018-06-19T03:44:26.224Z,50
2018-06-19T03:45:26.959Z,45
2018-06-19T03:46:27.683Z,45
2018-06-19T03:47:28.407Z,45
2018-06-19T03:48:29.135Z,45
2018-06-19T03:49:30.261Z,45
2018-06-19T03:50:31.008Z,50
2018-06-19T03:51:31.730Z,50
2018-06-19T03:52:32.473Z,50
2018-06-19T03:53:33.189Z,56
2018-06-19T03:54:33.916Z,56
2018-06-19T03:55:34.653Z,56
2018-06-19T03:56:35.386Z,61
2018-06-19T03:57:36.103Z,61
2018-06-19T03:58:36.884Z,67
2018-06-19T03:59:37.619Z,67
2018-06-19T04:00:38.350Z,67
2018-06-19T04:01:39.072Z,67
2018-06-19T04:02:39.802Z,73
2018-06-19T04:03:40.523Z,73
2018-06-19T04:04:41.263Z,73
2018-06-19T04:05:42.000Z,73
2018-06-19T04:06:42.738Z,73
2018-06-19T04:07:43.565Z,78
2018-06-19T04:08:44.295Z,84
2018-06-19T04:09:45.026Z,84
2018-06-19T04:10:45.752Z,84
2018-06-19T04:11:46.489Z,78
2018-06-19T04:12:47.262Z,78
2018-06-19T04:13:47.985Z,78
2018-06-19T04:14:48.714Z,78
2018-06-19T04:15:49.432Z,78
2018-06-19T04:16:50.155Z,78
2018-06-19T04:17:51.135Z,78
2018-06-19T04:18:52.101Z,78
2018-06-19T04:19:52.833Z,78
2018-06-19T04:20:53.554Z,78
2018-06-19T04:21:54.291Z,84
2018-06-19T04:22:55.008Z,84
2018-06-19T04:23:55.983Z,84
2018-06-19T04:24:56.712Z,84
2018-06-19T04:25:57.441Z,90
2018-06-19T04:26:58.170Z,84
2018-06-19T04:27:58.892Z,84
2018-06-19T04:28:59.607Z,90
2018-06-19T04:30:00.468Z,95
2018-06-19T04:31:01.181Z,90
2018-06-19T04:32:01.907Z,90
2018-06-19T04:33:02.647Z,90
2018-06-19T04:34:03.387Z,95
2018-06-19T04:35:04.106Z,101
2018-06-19T04:36:04.847Z,101
2018-06-19T04:37:05.573Z,101
2018-06-19T04:38:06.304Z,95
2018-06-19T04:39:07.288Z,90
2018-06-19T04:40:08.014Z,90
2018-06-19T04:41:08.746Z,101
2018-06-19T04:42:09.495Z,106
2018-06-19T04:43:10.215Z,112
2018-06-19T04:44:11.214Z,106
2018-06-19T04:45:11.942Z,112
2018-06-19T04:46:12.665Z,123
2018-06-19T04:47:13.404Z,135
2018-06-19T04:48:14.141Z,135
2018-06-19T04:49:14.866Z,135
2018-06-19T04:50:15.594Z,129
2018-06-19T04:51:16.335Z,129
2018-06-19T04:52:17.057Z,135
2018-06-19T04:53:17.793Z,140
2018-06-19T04:54:18.514Z,151
2018-06-19T04:55:19.241Z,157
2018-06-19T04:56:19.965Z,157
2018-06-19T04:57:20.689Z,157
2018-06-19T04:58:21.420Z,157
2018-06-19T04:59:22.399Z,163
2018-06-19T05:00:23.131Z,163
2018-06-19T05:01:23.863Z,168
2018-06-19T05:02:24.596Z,168
2018-06-19T05:03:25.572Z,168
2018-06-19T05:04:26.544Z,163
2018-06-19T05:05:27.522Z,168
2018-06-19T05:06:28.242Z,174
2018-06-19T05:07:28.964Z,174
2018-06-19T05:08:29.697Z,180
2018-06-19T05:09:30.435Z,185
2018-06-19T05:10:31.187Z,185
2018-06-19T05:11:31.911Z,196
2018-06-19T05:12:32.683Z,208
2018-06-19T05:13:33.419Z,219
2018-06-19T05:14:34.146Z,219
2018-06-19T05:15:34.884Z,219
2018-06-19T05:16:35.614Z,213
2018-06-19T05:17:36.336Z,213
2018-06-19T05:18:37.061Z,208
2018-06-19T05:19:37.791Z,202
2018-06-19T05:20:38.568Z,191
2018-06-19T05:21:39.883Z,202
2018-06-19T05:22:41.119Z,225
2018-06-19T05:23:41.894Z,253
2018-06-19T05:24:42.617Z,275
2018-06-19T05:25:43.607Z,309
2018-06-19T05:26:45.239Z,348
2018-06-19T05:27:45.969Z,382
2018-06-19T05:28:46.690Z,399
2018-06-19T05:29:47.679Z,388
2018-06-19T05:30:48.402Z,376
2018-06-19T05:31:49.380Z,376
2018-06-19T05:32:50.199Z,360
2018-06-19T05:33:50.934Z,343
2018-06-19T05:34:51.666Z,354
2018-06-19T05:35:52.678Z,388
2018-06-19T05:36:53.443Z,433
2018-06-19T05:37:54.134Z,461
2018-06-19T05:38:54.865Z,450
2018-06-19T05:39:55.833Z,438
2018-06-19T05:40:56.579Z,438
2018-06-19T05:41:57.559Z,444
2018-06-19T05:42:58.287Z,455
2018-06-19T05:43:59.021Z,466
2018-06-19T05:44:59.748Z,478
2018-06-19T05:46:00.471Z,489
2018-06-19T05:47:01.196Z,489
2018-06-19T05:48:02.297Z,489
2018-06-19T05:49:03.288Z,489
2018-06-19T05:50:04.024Z,517
2018-06-19T05:51:05.015Z,500
2018-06-19T05:52:05.991Z,635
2018-06-19T05:53:06.821Z,388
2018-06-19T05:54:07.550Z,343
2018-06-19T05:55:08.523Z,326
2018-06-19T05:56:09.249Z,309
2018-06-19T05:57:09.982Z,292
2018-06-19T05:58:10.722Z,292
2018-06-19T05:59:11.459Z,281
2018-06-19T06:00:12.195Z,275
2018-06-19T06:01:12.920Z,258
2018-06-19T06:02:13.666Z,253
2018-06-19T06:03:14.393Z,270
2018-06-19T06:04:15.118Z,298
2018-06-19T06:05:15.860Z,331
2018-06-19T06:06:16.594Z,371
2018-06-19T06:07:17.386Z,421
2018-06-19T06:08:18.118Z,466
2018-06-19T06:09:18.874Z,478
2018-06-19T06:10:19.594Z,472
2018-06-19T06:11:20.325Z,472
2018-06-19T06:12:21.062Z,466
2018-06-19T06:13:21.792Z,444
2018-06-19T06:14:22.510Z,382
2018-06-19T06:15:23.235Z,354
2018-06-19T06:16:24.081Z,388
2018-06-19T06:17:24.800Z,433
2018-06-19T06:18:25.538Z,461
2018-06-19T06:19:26.278Z,444
2018-06-19T06:20:26.999Z,382
2018-06-19T06:21:27.965Z,326
2018-06-19T06:22:28.704Z,320
2018-06-19T06:23:29.444Z,360
2018-06-19T06:24:30.168Z,427
2018-06-19T06:25:30.897Z,483
2018-06-19T06:26:31.611Z,517
2018-06-19T06:27:32.364Z,534
2018-06-19T06:28:33.199Z,573
2018-06-19T06:29:33.931Z,607
2018-06-19T06:30:34.654Z,618
2018-06-19T06:31:35.489Z,618
2018-06-19T06:32:36.229Z,585
2018-06-19T06:33:37.080Z,551
2018-06-19T06:34:38.101Z,568
2018-06-19T06:35:38.969Z,551
2018-06-19T06:36:39.761Z,506
2018-06-19T06:37:40.511Z,461
2018-06-19T06:38:41.273Z,433
2018-06-19T06:39:42.008Z,399
2018-06-19T06:40:42.739Z,365
2018-06-19T06:41:43.726Z,405
2018-06-19T06:42:44.450Z,478
2018-06-19T06:43:45.175Z,573
2018-06-19T06:44:45.956Z,641
2018-06-19T06:45:46.653Z,613
2018-06-19T06:46:47.643Z,585
2018-06-19T06:47:48.354Z,545
2018-06-19T06:48:49.137Z,495
2018-06-19T06:49:50.122Z,489
2018-06-19T06:50:50.860Z,601
2018-06-19T06:51:51.585Z,725
2018-06-19T06:52:52.317Z,703
2018-06-19T06:53:53.046Z,635
2018-06-19T06:54:53.781Z,613
2018-06-19T06:55:54.515Z,680
2018-06-19T06:56:55.238Z,720
2018-06-19T06:57:55.974Z,742
2018-06-19T06:58:56.953Z,720
2018-06-19T06:59:57.740Z,663
2018-06-19T07:00:58.463Z,601
2018-06-19T07:01:59.199Z,579
2018-06-19T07:02:59.923Z,652
2018-06-19T07:04:00.686Z,736
2018-06-19T07:05:01.410Z,736
2018-06-19T07:06:02.494Z,686
2018-06-19T07:07:03.468Z,658
2018-06-19T07:08:04.204Z,641
2018-06-19T07:09:04.945Z,658
2018-06-19T07:10:05.679Z,680
2018-06-19T07:11:06.502Z,714
2018-06-19T07:12:07.233Z,714
2018-06-19T07:13:07.961Z,703
2018-06-19T07:14:08.682Z,697
2018-06-19T07:15:09.411Z,697
2018-06-19T07:16:10.186Z,691
2018-06-19T07:17:10.906Z,714
2018-06-19T07:18:11.644Z,770
2018-06-19T07:19:12.510Z,798
2018-06-19T07:20:13.105Z,781
2018-06-19T07:21:13.853Z,838
2018-06-19T07:22:14.587Z,877
2018-06-19T07:23:15.337Z,928
2018-06-19T07:24:16.060Z,933
2018-06-19T07:25:16.796Z,911
2018-06-19T07:26:17.540Z,933
2018-06-19T07:27:18.674Z,1029
2018-06-19T07:28:19.400Z,1091
2018-06-19T07:29:20.139Z,1119
2018-06-19T07:30:20.869Z,1063
2018-06-19T07:31:21.603Z,1023
2018-06-19T07:32:22.374Z,984
2018-06-19T07:33:23.096Z,956
2018-06-19T07:34:23.831Z,933
2018-06-19T07:35:24.582Z,961
2018-06-19T07:36:25.563Z,990
2018-06-19T07:37:26.545Z,978
2018-06-19T07:38:27.320Z,990
2018-06-19T07:39:28.005Z,1012
2018-06-19T07:40:28.754Z,1040
2018-06-19T07:41:29.484Z,1085
2018-06-19T07:42:30.220Z,1096
2018-06-19T07:43:30.946Z,1125
2018-06-19T07:44:31.680Z,1153
2018-06-19T07:45:32.406Z,1057
2018-06-19T07:46:33.239Z,1001
2018-06-19T07:47:33.985Z,956
2018-06-19T07:48:34.720Z,911
2018-06-19T07:49:35.451Z,843
2018-06-19T07:50:36.182Z,742
2018-06-19T07:51:37.030Z,759
2018-06-19T07:52:37.774Z,815
2018-06-19T07:53:38.504Z,804
2018-06-19T07:54:39.238Z,810
2018-06-19T07:55:40.037Z,855
2018-06-19T07:56:41.096Z,753
2018-06-19T07:57:41.843Z,765
2018-06-19T07:58:42.570Z,810
2018-06-19T07:59:43.301Z,731
2018-06-19T08:00:44.025Z,703
2018-06-19T08:01:44.809Z,680
2018-06-19T08:02:45.542Z,675
2018-06-19T08:03:46.515Z,708
2018-06-19T08:04:47.258Z,697
2018-06-19T08:05:48.238Z,635
2018-06-19T08:06:49.125Z,646
2018-06-19T08:07:49.868Z,742
2018-06-19T08:08:50.589Z,843
2018-06-19T08:09:51.320Z,759
2018-06-19T08:10:52.058Z,753
2018-06-19T08:11:53.033Z,826
2018-06-19T08:12:54.014Z,939
2018-06-19T08:13:54.744Z,1006
2018-06-19T08:14:55.467Z,1051
2018-06-19T08:15:56.205Z,1096
2018-06-19T08:16:56.942Z,1091
2018-06-19T08:17:57.674Z,1046
2018-06-19T08:18:58.403Z,1068
2018-06-19T08:19:59.129Z,1164
2018-06-19T08:20:59.869Z,1186
2018-06-19T08:22:00.614Z,1170
2018-06-19T08:23:01.348Z,1175
2018-06-19T08:24:02.086Z,1192
2018-06-19T08:25:02.826Z,1164
2018-06-19T08:26:03.559Z,1170
2018-06-19T08:27:04.296Z,1136
2018-06-19T08:28:05.279Z,1125
2018-06-19T08:29:06.009Z,995
2018-06-19T08:30:06.744Z,849
2018-06-19T08:31:07.485Z,804
2018-06-19T08:32:08.230Z,877
2018-06-19T08:33:08.958Z,933
2018-06-19T08:34:09.787Z,849
2018-06-19T08:35:10.511Z,888
2018-06-19T08:36:11.311Z,984
2018-06-19T08:37:11.988Z,990
2018-06-19T08:38:12.725Z,900
2018-06-19T08:39:13.469Z,888
2018-06-19T08:40:14.193Z,911
2018-06-19T08:41:14.925Z,888
2018-06-19T08:42:15.653Z,888
2018-06-19T08:43:16.390Z,961
2018-06-19T08:44:17.134Z,1006
2018-06-19T08:45:17.967Z,1001
2018-06-19T08:46:18.702Z,1035
2018-06-19T08:47:19.436Z,1164
2018-06-19T08:48:20.167Z,1136
2018-06-19T08:49:20.897Z,967
2018-06-19T08:50:21.627Z,866
2018-06-19T08:51:22.363Z,900
2018-06-19T08:52:23.104Z,978
2018-06-19T08:53:24.084Z,1113
2018-06-19T08:54:24.888Z,1181
2018-06-19T08:55:25.564Z,1119
2018-06-19T08:56:26.349Z,1147
2018-06-19T08:57:27.086Z,1186
2018-06-19T08:58:27.834Z,1085
2018-06-19T08:59:28.573Z,1012
2018-06-19T09:00:29.552Z,961
2018-06-19T09:01:30.384Z,905
2018-06-19T09:02:31.120Z,1057
2018-06-19T09:03:31.856Z,1434
2018-06-19T09:04:32.587Z,1423
2018-06-19T09:05:33.342Z,1203
2018-06-19T09:06:34.073Z,1068
2018-06-19T09:07:34.838Z,1085
2018-06-19T09:08:35.576Z,1051
2018-06-19T09:09:36.316Z,1040
2018-06-19T09:10:37.052Z,1113
2018-06-19T09:11:37.782Z,1383
2018-06-19T09:12:38.518Z,1530
2018-06-19T09:13:39.246Z,1586
2018-06-19T09:14:39.989Z,1715
2018-06-19T09:15:40.977Z,1771
2018-06-19T09:16:41.692Z,1710
2018-06-19T09:17:42.429Z,1659
2018-06-19T09:18:43.153Z,1378
2018-06-19T09:19:44.372Z,1130
2018-06-19T09:20:45.410Z,1040
2018-06-19T09:21:46.161Z,1040
2018-06-19T09:22:46.888Z,984
2018-06-19T09:23:47.626Z,860
2018-06-19T09:24:48.609Z,781
2018-06-19T09:25:49.606Z,860
2018-06-19T09:26:50.331Z,922
2018-06-19T09:27:51.060Z,855
2018-06-19T09:28:52.040Z,787
2018-06-19T09:29:52.777Z,776
2018-06-19T09:30:53.512Z,821
2018-06-19T09:31:54.256Z,961
2018-06-19T09:32:55.091Z,1102
2018-06-19T09:33:55.821Z,1164
2018-06-19T09:34:56.555Z,1181
2018-06-19T09:35:57.295Z,1181
2018-06-19T09:36:58.024Z,990
2018-06-19T09:37:58.805Z,714
2018-06-19T09:38:59.554Z,601
2018-06-19T09:40:00.302Z,528
2018-06-19T09:41:01.038Z,506
2018-06-19T09:42:01.777Z,489
2018-06-19T09:43:02.510Z,489
2018-06-19T09:44:03.245Z,500
2018-06-19T09:45:03.972Z,523
2018-06-19T09:46:05.121Z,545
2018-06-19T09:47:06.175Z,528
2018-06-19T09:48:06.843Z,641
2018-06-19T09:49:07.602Z,742
2018-06-19T09:50:08.327Z,720
2018-06-19T09:51:09.054Z,725
2018-06-19T09:52:09.793Z,759
2018-06-19T09:53:10.536Z,810
2018-06-19T09:54:11.257Z,860
2018-06-19T09:55:11.985Z,894
2018-06-19T09:56:13.015Z,894
2018-06-19T09:57:13.751Z,916
2018-06-19T09:58:14.477Z,1068
2018-06-19T09:59:15.383Z,1029
2018-06-19T10:00:15.950Z,900
2018-06-19T10:01:16.789Z,1006
2018-06-19T10:02:17.524Z,1164
2018-06-19T10:03:18.260Z,1186
2018-06-19T10:04:18.994Z,1108
2018-06-19T10:05:19.978Z,1141
2018-06-19T10:06:20.797Z,1153
2018-06-19T10:07:21.507Z,1046
2018-06-19T10:08:22.250Z,950
2018-06-19T10:09:22.978Z,793
2018-06-19T10:10:23.733Z,663
2018-06-19T10:11:24.470Z,534
2018-06-19T10:12:25.200Z,461
2018-06-19T10:13:25.928Z,472
2018-06-19T10:14:26.711Z,472
2018-06-19T10:15:27.445Z,455
2018-06-19T10:16:28.174Z,444
2018-06-19T10:17:28.900Z,455
2018-06-19T10:18:29.632Z,455
2018-06-19T10:19:30.728Z,500
2018-06-19T10:20:31.454Z,511
2018-06-19T10:21:32.174Z,523
2018-06-19T10:22:32.906Z,534
2018-06-19T10:23:33.638Z,562
2018-06-19T10:24:34.390Z,545
2018-06-19T10:25:35.114Z,545
2018-06-19T10:26:35.843Z,573
2018-06-19T10:27:36.579Z,630
2018-06-19T10:28:37.322Z,618
2018-06-19T10:29:38.038Z,556
2018-06-19T10:30:38.777Z,618
2018-06-19T10:31:39.520Z,624
2018-06-19T10:32:40.527Z,590
2018-06-19T10:33:41.264Z,669
2018-06-19T10:34:42.399Z,720
2018-06-19T10:35:43.127Z,680
2018-06-19T10:36:43.858Z,703
2018-06-19T10:37:44.604Z,748
2018-06-19T10:38:45.337Z,759
2018-06-19T10:39:46.125Z,838
2018-06-19T10:40:47.123Z,905
2018-06-19T10:41:47.856Z,911
2018-06-19T10:42:48.585Z,871
2018-06-19T10:43:49.568Z,765
2018-06-19T10:44:50.411Z,658
2018-06-19T10:45:51.148Z,691
2018-06-19T10:46:51.870Z,883
2018-06-19T10:47:52.604Z,1035
2018-06-19T10:48:53.347Z,995
2018-06-19T10:49:54.480Z,1006
2018-06-19T10:50:55.233Z,1074
2018-06-19T10:51:55.956Z,1186
2018-06-19T10:52:56.691Z,1276
2018-06-19T10:53:57.436Z,1524
2018-06-19T10:54:58.162Z,1687
2018-06-19T10:55:58.899Z,1591
2018-06-19T10:56:59.783Z,1777
2018-06-19T10:58:00.535Z,2295
2018-06-19T10:59:01.336Z,1845
2018-06-19T11:00:02.004Z,1653
2018-06-19T11:01:02.994Z,1710
2018-06-19T11:02:03.738Z,1968
2018-06-19T11:03:04.468Z,1670
2018-06-19T11:04:05.193Z,1215
2018-06-19T11:05:05.966Z,1203
2018-06-19T11:06:06.665Z,1299
2018-06-19T11:07:07.402Z,1226
2018-06-19T11:08:08.192Z,1265
2018-06-19T11:09:08.988Z,1524
2018-06-19T11:10:09.738Z,1693
2018-06-19T11:11:10.475Z,1299
2018-06-19T11:12:11.205Z,1074
2018-06-19T11:13:11.940Z,1141
2018-06-19T11:14:12.682Z,1063
2018-06-19T11:15:13.412Z,1091
2018-06-19T11:16:14.145Z,1243
2018-06-19T11:17:14.892Z,1333
2018-06-19T11:18:15.724Z,1293
2018-06-19T11:19:16.460Z,1293
2018-06-19T11:20:17.192Z,1119
2018-06-19T11:21:17.963Z,1102
2018-06-19T11:22:18.658Z,1215
2018-06-19T11:23:19.394Z,1215
2018-06-19T11:24:20.143Z,1023
2018-06-19T11:25:20.871Z,995
2018-06-19T11:26:21.856Z,1068
2018-06-19T11:27:22.585Z,1130
2018-06-19T11:28:23.566Z,1288
2018-06-19T11:29:24.304Z,1316
2018-06-19T11:30:25.042Z,1265
2018-06-19T11:31:25.790Z,1164
2018-06-19T11:32:26.519Z,1153
2018-06-19T11:33:27.259Z,1378
2018-06-19T11:34:27.993Z,1411
2018-06-19T11:35:28.741Z,1659
2018-06-19T11:36:29.472Z,1805
2018-06-19T11:37:30.217Z,1535
2018-06-19T11:38:30.965Z,1400
2018-06-19T11:39:31.698Z,1226
2018-06-19T11:40:32.692Z,1141
2018-06-19T11:41:33.419Z,1226
2018-06-19T11:42:34.155Z,1839
2018-06-19T11:43:34.903Z,1901
2018-06-19T11:44:35.699Z,2019
2018-06-19T11:45:36.373Z,2036
2018-06-19T11:46:37.151Z,1901
2018-06-19T11:47:37.882Z,1575
2018-06-19T11:48:38.613Z,1580
2018-06-19T11:49:39.355Z,3200
2018-06-19T11:50:40.091Z,2137
2018-06-19T11:51:40.830Z,3003
2018-06-19T11:52:41.566Z,3532
2018-06-19T11:53:42.315Z,3009
2018-06-19T11:54:43.052Z,2407
2018-06-19T11:55:43.788Z,2610
2018-06-19T11:56:44.601Z,1890
2018-06-19T11:57:45.325Z,1968
2018-06-19T11:58:46.061Z,1631
2018-06-19T11:59:46.808Z,1507
2018-06-19T12:00:47.546Z,1625
2018-06-19T12:01:48.320Z,1687
2018-06-19T12:02:49.076Z,2368
2018-06-19T12:03:49.812Z,2199
2018-06-19T12:04:50.547Z,2486
2018-06-19T12:05:51.281Z,1957
2018-06-19T12:06:52.021Z,2030
2018-06-19T12:07:52.754Z,1833
2018-06-19T12:08:53.503Z,1395
2018-06-19T12:09:54.250Z,1338
2018-06-19T12:10:55.132Z,1586
2018-06-19T12:11:55.872Z,1642
2018-06-19T12:12:56.612Z,1552
2018-06-19T12:13:57.358Z,1462
2018-06-19T12:14:58.340Z,1355
2018-06-19T12:15:59.471Z,1704
2018-06-19T12:17:00.206Z,1873
2018-06-19T12:18:00.937Z,1732
2018-06-19T12:19:01.671Z,1558
2018-06-19T12:20:02.403Z,1923
2018-06-19T12:21:03.141Z,2002
2018-06-19T12:22:03.886Z,1918
2018-06-19T12:23:04.629Z,1552
2018-06-19T12:24:05.447Z,1310
2018-06-19T12:25:06.106Z,1068
2018-06-19T12:26:07.209Z,1029
2018-06-19T12:27:07.956Z,1181
2018-06-19T12:28:08.691Z,1096
2018-06-19T12:29:09.471Z,1141
2018-06-19T12:30:10.212Z,1125
2018-06-19T12:31:10.949Z,1029
2018-06-19T12:32:11.686Z,945
2018-06-19T12:33:12.434Z,911
2018-06-19T12:34:13.222Z,883
2018-06-19T12:35:13.949Z,838
2018-06-19T12:36:14.696Z,866
2018-06-19T12:37:15.433Z,731
2018-06-19T12:38:16.164Z,596
2018-06-19T12:39:17.316Z,573
2018-06-19T12:40:18.046Z,703
2018-06-19T12:41:19.045Z,1035
2018-06-19T12:42:19.793Z,1428
2018-06-19T12:43:20.524Z,1248
2018-06-19T12:44:21.268Z,1338
2018-06-19T12:45:22.395Z,1828
2018-06-19T12:46:23.128Z,1749
2018-06-19T12:47:23.866Z,1569
2018-06-19T12:48:24.646Z,1248
2018-06-19T12:49:25.346Z,911
2018-06-19T12:50:26.076Z,725
2018-06-19T12:51:26.819Z,652
2018-06-19T12:52:27.602Z,618
2018-06-19T12:53:28.376Z,641
2018-06-19T12:54:29.096Z,675
2018-06-19T12:55:29.837Z,675
2018-06-19T12:56:30.590Z,708
2018-06-19T12:57:31.369Z,798
2018-06-19T12:58:32.090Z,731
2018-06-19T12:59:32.828Z,635
2018-06-19T13:00:33.554Z,675
2018-06-19T13:01:34.297Z,725
2018-06-19T13:02:35.040Z,753
2018-06-19T13:03:35.774Z,961
2018-06-19T13:04:36.519Z,1456
2018-06-19T13:05:37.272Z,3616
2018-06-19T13:06:38.013Z,2216
2018-06-19T13:07:38.853Z,3189
2018-06-19T13:08:39.588Z,2806
2018-06-19T13:09:40.577Z,3571
2018-06-19T13:10:41.306Z,2531
2018-06-19T13:11:42.038Z,2171
2018-06-19T13:12:43.035Z,2131
2018-06-19T13:13:43.766Z,1951
2018-06-19T13:14:44.506Z,1788
2018-06-19T13:15:45.233Z,3993
2018-06-19T13:16:45.967Z,2418
2018-06-19T13:17:46.708Z,1530
2018-06-19T13:18:47.443Z,1485
2018-06-19T13:19:48.165Z,1496
2018-06-19T13:20:48.896Z,1411
2018-06-19T13:21:49.638Z,1288
2018-06-19T13:22:50.378Z,1462
2018-06-19T13:23:51.111Z,1299
2018-06-19T13:24:52.091Z,1170
2018-06-19T13:25:52.836Z,1113
2018-06-19T13:26:53.566Z,1068
2018-06-19T13:27:54.551Z,894
2018-06-19T13:28:55.395Z,765
2018-06-19T13:29:56.127Z,708
2018-06-19T13:30:56.851Z,720
2018-06-19T13:31:57.585Z,776
2018-06-19T13:32:58.326Z,871
2018-06-19T13:33:59.119Z,933
2018-06-19T13:34:59.856Z,928
2018-06-19T13:36:00.605Z,916
2018-06-19T13:37:01.351Z,950
2018-06-19T13:38:02.091Z,945
2018-06-19T13:39:03.083Z,866
2018-06-19T13:40:04.059Z,770
2018-06-19T13:41:04.814Z,697
2018-06-19T13:42:05.561Z,618
2018-06-19T13:43:06.281Z,523
2018-06-19T13:44:07.002Z,573
2018-06-19T13:45:07.733Z,748
2018-06-19T13:46:08.488Z,798
2018-06-19T13:47:09.245Z,810
2018-06-19T13:48:09.977Z,922
2018-06-19T13:49:10.714Z,978
2018-06-19T13:50:11.462Z,1001
2018-06-19T13:51:12.193Z,1063
2018-06-19T13:52:13.015Z,1080
2018-06-19T13:53:13.750Z,1108
2018-06-19T13:54:14.734Z,1164
2018-06-19T13:55:15.472Z,1192
2018-06-19T13:56:16.205Z,1181
2018-06-19T13:57:16.931Z,1164
2018-06-19T13:58:17.679Z,1141
2018-06-19T13:59:18.408Z,1147
2018-06-19T14:00:19.141Z,1186
2018-06-19T14:01:19.894Z,1248
2018-06-19T14:02:20.680Z,1293
2018-06-19T14:03:21.438Z,1327
2018-06-19T14:04:22.207Z,1316
2018-06-19T14:05:22.940Z,1260